createdAt,value
2019-03-24T00:02:13.687Z,98380.00
2019-03-24T00:04:54.151Z,98382.00
2019-03-24T00:07:49.881Z,98369.00
2019-03-24T00:10:36.252Z,98369.00
2019-03-24T00:13:08.544Z,98362.00
2019-03-24T00:15:40.533Z,98362.00
2019-03-24T00:18:12.951Z,98362.00
2019-03-24T00:20:45.023Z,98364.00
2019-03-24T00:23:17.456Z,98349.00
2019-03-24T00:25:49.553Z,98348.00
2019-03-24T00:28:21.571Z,98346.00
2019-03-24T00:30:54.167Z,98343.00
2019-03-24T00:33:28.797Z,98345.00
2019-03-24T00:36:01.164Z,98339.00
2019-03-24T00:38:43.115Z,98343.00
2019-03-24T00:41:15.702Z,98338.00
2019-03-24T00:43:54.758Z,98323.00
2019-03-24T00:46:27.315Z,98335.00
2019-03-24T00:48:59.609Z,98335.00
2019-03-24T00:51:32.386Z,98336.00
2019-03-24T00:54:04.801Z,98327.00
2019-03-24T00:56:42.564Z,98334.00
2019-03-24T00:59:29.685Z,98326.00
2019-03-24T01:02:05.233Z,98325.00
2019-03-24T01:04:43.747Z,98321.00
2019-03-24T01:07:39.672Z,98319.00
2019-03-24T01:10:45.849Z,98320.00
2019-03-24T01:13:27.425Z,98319.00
2019-03-24T01:16:14.657Z,98319.00
2019-03-24T01:19:06.887Z,98319.00
2019-03-24T01:21:50.321Z,98314.00
2019-03-24T01:24:33.242Z,98309.00
2019-03-24T01:27:23.993Z,98313.00
2019-03-24T01:30:03.269Z,98311.00
2019-03-24T01:32:39.226Z,98311.00
2019-03-24T01:35:20.302Z,98299.00
2019-03-24T01:38:01.795Z,98306.00
2019-03-24T01:40:57.005Z,98295.00
2019-03-24T01:43:46.651Z,98293.00
2019-03-24T01:46:32.779Z,98300.00
2019-03-24T01:49:15.614Z,98295.00
2019-03-24T01:52:10.279Z,98288.00
2019-03-24T01:54:56.877Z,98291.00
2019-03-24T01:58:22.427Z,98291.00
2019-03-24T02:01:18.118Z,98289.00
2019-03-24T02:03:59.124Z,98293.00
2019-03-24T02:06:38.595Z,98287.00
2019-03-24T02:09:19.093Z,98298.00
2019-03-24T02:11:59.236Z,98286.00
2019-03-24T02:14:44.117Z,98278.00
2019-03-24T02:17:23.516Z,98287.00
2019-03-24T02:20:01.641Z,98278.00
2019-03-24T02:22:50.920Z,98278.00
2019-03-24T02:25:30.905Z,98274.00
2019-03-24T02:31:43.458Z,98281.00
2019-03-24T02:34:28.306Z,98272.00
2019-03-24T02:37:08.258Z,98267.00
2019-03-24T02:39:44.628Z,98282.00
2019-03-24T02:42:46.595Z,98275.00
2019-03-24T02:45:27.506Z,98275.00
2019-03-24T02:48:09.979Z,98270.00
2019-03-24T02:51:19.091Z,98269.00
2019-03-24T02:53:53.745Z,98273.00
2019-03-24T02:56:36.447Z,98282.00
2019-03-24T02:59:16.608Z,98271.00
2019-03-24T03:01:57.167Z,98273.00
2019-03-24T03:04:40.529Z,98269.00
2019-03-24T03:07:26.695Z,98268.00
2019-03-24T03:10:10.742Z,98271.00
2019-03-24T03:12:51.412Z,98272.00
2019-03-24T03:15:33.916Z,98267.00
2019-03-24T03:18:25.138Z,98266.00
2019-03-24T03:20:58.975Z,98262.00
2019-03-24T03:23:37.057Z,98262.00
2019-03-24T03:26:26.834Z,98255.00
2019-03-24T03:29:17.326Z,98245.00
2019-03-24T03:32:09.784Z,98242.00
2019-03-24T03:34:46.140Z,98242.00
2019-03-24T03:37:38.415Z,98230.00
2019-03-24T03:40:17.688Z,98246.00
2019-03-24T03:43:11.189Z,98237.00
2019-03-24T03:46:05.107Z,98249.00
2019-03-24T03:48:46.353Z,98228.00
2019-03-24T03:51:30.875Z,98231.00
2019-03-24T03:54:07.070Z,98215.00
2019-03-24T03:56:44.434Z,98220.00
2019-03-24T03:59:33.499Z,98214.00
2019-03-24T04:05:58.445Z,98221.00
2019-03-24T04:09:06.748Z,98207.00
2019-03-24T04:11:52.345Z,98210.00
2019-03-24T04:14:28.531Z,98210.00
2019-03-24T04:17:09.963Z,98212.00
2019-03-24T04:19:56.271Z,98212.00
2019-03-24T04:22:54.553Z,98200.00
2019-03-24T04:25:40.722Z,98203.00
2019-03-24T04:28:30.809Z,98207.00
2019-03-24T04:31:13.367Z,98202.00
2019-03-24T04:34:05.157Z,98200.00
2019-03-24T04:36:40.791Z,98205.00
2019-03-24T04:39:19.311Z,98205.00
2019-03-24T04:42:01.187Z,98204.00
2019-03-24T04:44:45.445Z,98204.00
2019-03-24T04:47:26.315Z,98203.00
2019-03-24T04:50:01.657Z,98203.00
2019-03-24T04:52:38.771Z,98198.00
2019-03-24T04:55:17.171Z,98209.00
2019-03-24T04:57:54.819Z,98203.00
2019-03-24T05:00:55.457Z,98196.00
2019-03-24T05:03:45.343Z,98194.00
2019-03-24T05:06:30.832Z,98188.00
2019-03-24T05:09:17.319Z,98190.00
2019-03-24T05:12:00.707Z,98204.00
2019-03-24T05:14:42.764Z,98189.00
2019-03-24T05:17:26.708Z,98198.00
2019-03-24T05:20:14.846Z,98192.00
2019-03-24T05:22:54.039Z,98192.00
2019-03-24T05:25:40.875Z,98192.00
2019-03-24T05:28:15.907Z,98198.00
2019-03-24T05:30:59.601Z,98198.00
2019-03-24T05:33:47.490Z,98193.00
2019-03-24T05:36:23.751Z,98190.00
2019-03-24T05:39:14.250Z,98192.00
2019-03-24T05:42:08.599Z,98188.00
2019-03-24T05:45:21.052Z,98178.00
2019-03-24T05:48:02.533Z,98175.00
2019-03-24T05:50:49.651Z,98175.00
2019-03-24T05:53:29.497Z,98167.00
2019-03-24T05:56:09.337Z,98175.00
2019-03-24T05:58:59.322Z,98174.00
2019-03-24T06:01:40.304Z,98190.00
2019-03-24T06:04:25.571Z,98161.00
2019-03-24T06:07:09.817Z,98170.00
2019-03-24T06:09:55.102Z,98173.00
2019-03-24T06:12:33.225Z,98173.00
2019-03-24T06:15:14.660Z,98170.00
2019-03-24T06:18:20.535Z,98166.00
2019-03-24T06:20:58.418Z,98172.00
2019-03-24T06:23:34.888Z,98121.00
2019-03-24T06:26:17.526Z,98153.00
2019-03-24T06:29:12.615Z,98157.00
2019-03-24T06:31:55.839Z,98163.00
2019-03-24T06:34:42.557Z,98154.00
2019-03-24T06:37:42.398Z,98152.00
2019-03-24T06:40:22.452Z,98149.00
2019-03-24T06:43:26.684Z,98141.00
2019-03-24T06:46:14.998Z,98146.00
2019-03-24T06:49:05.675Z,98145.00
2019-03-24T06:52:07.200Z,98155.00
2019-03-24T06:54:49.023Z,98145.00
2019-03-24T06:57:29.734Z,98146.00
2019-03-24T07:00:10.965Z,98149.00
2019-03-24T07:02:53.381Z,98148.00
2019-03-24T07:05:50.941Z,98143.00
2019-03-24T07:08:26.785Z,98147.00
2019-03-24T07:11:15.337Z,98152.00
2019-03-24T07:14:03.485Z,98154.00
2019-03-24T07:16:47.419Z,98152.00
2019-03-24T07:19:26.552Z,98152.00
2019-03-24T07:22:09.566Z,98160.00
2019-03-24T07:24:54.988Z,98154.00
2019-03-24T07:27:57.444Z,98151.00
2019-03-24T07:31:00.331Z,98149.00
2019-03-24T07:33:43.974Z,98156.00
2019-03-24T07:36:22.944Z,98152.00
2019-03-24T07:39:29.485Z,98141.00
2019-03-24T07:42:10.238Z,98150.00
2019-03-24T07:44:50.645Z,98147.00
2019-03-24T07:47:33.892Z,98144.00
2019-03-24T07:50:18.446Z,98137.00
2019-03-24T07:53:01.198Z,98148.00
2019-03-24T07:55:51.551Z,98152.00
2019-03-24T07:58:28.266Z,98141.00
2019-03-24T08:01:27.361Z,98149.00
2019-03-24T08:04:16.313Z,98146.00
2019-03-24T08:07:15.445Z,98138.00
2019-03-24T08:10:05.511Z,98138.00
2019-03-24T08:13:01.757Z,98142.00
2019-03-24T08:15:57.052Z,98148.00
2019-03-24T08:18:30.372Z,98139.00
2019-03-24T08:21:02.789Z,98140.00
2019-03-24T08:23:34.799Z,98126.00
2019-03-24T08:26:07.265Z,98140.00
2019-03-24T08:28:39.569Z,98124.00
2019-03-24T08:31:11.494Z,98118.00
2019-03-24T08:33:43.732Z,98126.00
2019-03-24T08:36:15.825Z,98112.00
2019-03-24T08:38:48.274Z,98116.00
2019-03-24T08:41:20.267Z,98109.00
2019-03-24T08:43:52.604Z,98103.00
2019-03-24T08:46:24.816Z,98114.00
2019-03-24T08:48:56.929Z,98119.00
2019-03-24T08:51:29.103Z,98101.00
2019-03-24T08:54:01.076Z,98096.00
2019-03-24T08:56:33.003Z,98093.00
2019-03-24T08:59:05.133Z,98087.00
2019-03-24T09:01:37.123Z,98088.00
2019-03-24T09:04:09.364Z,98085.00
2019-03-24T09:06:41.767Z,98083.00
2019-03-24T09:09:13.741Z,98081.00
2019-03-24T09:11:46.298Z,98077.00
2019-03-24T09:14:18.610Z,98064.00
2019-03-24T09:16:50.533Z,98067.00
2019-03-24T09:19:22.788Z,98062.00
2019-03-24T09:21:54.788Z,98054.00
2019-03-24T09:24:26.758Z,98055.00
2019-03-24T09:26:58.788Z,98064.00
2019-03-24T09:29:30.692Z,98048.00
2019-03-24T09:32:02.828Z,98049.00
2019-03-24T09:34:34.885Z,98046.00
2019-03-24T09:37:06.982Z,98041.00
2019-03-24T09:39:38.984Z,98044.00
2019-03-24T09:42:10.859Z,98043.00
2019-03-24T09:44:43.756Z,98048.00
2019-03-24T09:47:15.933Z,98041.00
2019-03-24T09:49:47.837Z,98056.00
2019-03-24T09:52:20.090Z,98041.00
2019-03-24T09:54:52.947Z,98049.00
2019-03-24T09:57:24.879Z,98042.00
2019-03-24T09:59:56.767Z,98046.00
2019-03-24T10:02:28.691Z,98049.00
2019-03-24T10:05:00.588Z,98038.00
2019-03-24T10:07:32.555Z,98046.00
2019-03-24T10:10:04.651Z,98041.00
2019-03-24T10:12:37.018Z,98036.00
2019-03-24T10:15:09.645Z,98050.00
2019-03-24T10:17:41.655Z,98037.00
2019-03-24T10:20:13.800Z,98034.00
2019-03-24T10:22:46.187Z,98042.00
2019-03-24T10:25:18.177Z,98031.00
2019-03-24T10:27:50.264Z,98040.00
2019-03-24T10:30:22.258Z,98032.00
2019-03-24T10:32:54.215Z,98034.00
2019-03-24T10:35:26.193Z,98031.00
2019-03-24T10:37:58.231Z,98021.00
2019-03-24T10:40:30.199Z,98016.00
2019-03-24T10:43:02.359Z,98033.00
2019-03-24T10:45:34.406Z,98016.00
2019-03-24T10:48:06.525Z,98010.00
2019-03-24T10:50:38.588Z,98008.00
2019-03-24T10:53:10.714Z,98008.00
2019-03-24T10:55:42.720Z,98016.00
2019-03-24T10:58:15.087Z,98000.00
2019-03-24T11:00:47.416Z,98004.00
2019-03-24T11:03:19.861Z,98003.00
2019-03-24T11:05:52.208Z,97998.00
2019-03-24T11:08:24.332Z,98002.00
2019-03-24T11:10:56.235Z,97999.00
2019-03-24T11:13:28.481Z,97996.00
2019-03-24T11:16:00.367Z,97996.00
2019-03-24T11:18:32.322Z,97995.00
2019-03-24T11:21:05.005Z,97993.00
2019-03-24T11:23:37.131Z,97980.00
2019-03-24T11:26:09.448Z,97981.00
2019-03-24T11:28:41.458Z,97980.00
2019-03-24T11:31:14.098Z,97968.00
2019-03-24T11:33:46.269Z,97965.00
2019-03-24T11:36:18.591Z,97960.00
2019-03-24T11:38:50.606Z,97961.00
2019-03-24T11:41:22.598Z,97957.00
2019-03-24T11:43:54.723Z,97954.00
2019-03-24T11:46:26.915Z,97941.00
2019-03-24T11:48:58.852Z,97946.00
2019-03-24T11:51:30.813Z,97945.00
2019-03-24T11:54:03.009Z,97941.00
2019-03-24T11:56:35.016Z,97936.00
2019-03-24T11:59:07.155Z,97932.00
2019-03-24T12:01:39.172Z,97919.00
2019-03-24T12:04:11.109Z,97922.00
2019-03-24T12:06:43.023Z,97915.00
2019-03-24T12:09:15.121Z,97912.00
2019-03-24T12:11:47.181Z,97912.00
2019-03-24T12:14:19.699Z,97900.00
2019-03-24T12:16:52.145Z,97904.00
2019-03-24T12:19:24.229Z,97901.00
2019-03-24T12:21:56.703Z,97893.00
2019-03-24T12:24:28.782Z,97906.00
2019-03-24T12:27:00.870Z,97890.00
2019-03-24T12:29:33.089Z,97897.00
2019-03-24T12:32:05.601Z,97889.00
2019-03-24T12:34:37.597Z,97887.00
2019-03-24T12:37:11.233Z,97886.00
2019-03-24T12:39:43.671Z,97841.00
2019-03-24T12:42:16.101Z,97891.00
2019-03-24T12:44:48.196Z,97878.00
2019-03-24T12:47:20.617Z,97877.00
2019-03-24T12:49:52.813Z,97877.00
2019-03-24T12:52:25.852Z,97870.00
2019-03-24T12:54:59.130Z,97866.00
2019-03-24T12:57:31.224Z,97863.00
2019-03-24T13:00:03.267Z,97852.00
2019-03-24T13:02:35.473Z,97856.00
2019-03-24T13:05:09.863Z,97861.00
2019-03-24T13:07:41.766Z,97852.00
2019-03-24T13:10:14.576Z,97850.00
2019-03-24T13:12:46.560Z,97848.00
2019-03-24T13:15:18.669Z,97849.00
2019-03-24T13:17:51.026Z,97855.00
2019-03-24T13:20:36.481Z,97854.00
2019-03-24T13:22:56.836Z,97849.00
2019-03-24T13:25:28.782Z,97847.00
2019-03-24T13:28:00.619Z,97848.00
2019-03-24T13:30:32.659Z,97835.00
2019-03-24T13:33:04.780Z,97841.00
2019-03-24T13:35:36.826Z,97835.00
2019-03-24T13:38:08.896Z,97834.00
2019-03-24T13:40:41.041Z,97836.00
2019-03-24T13:43:13.026Z,97837.00
2019-03-24T13:45:45.068Z,97839.00
2019-03-24T13:48:17.161Z,97837.00
2019-03-24T13:50:49.100Z,97839.00
2019-03-24T13:53:21.470Z,97834.00
2019-03-24T13:55:53.571Z,97836.00
2019-03-24T13:58:25.520Z,97839.00
2019-03-24T14:00:57.461Z,97837.00
2019-03-24T14:03:29.385Z,97826.00
2019-03-24T14:06:01.307Z,97834.00
2019-03-24T14:08:33.232Z,97822.00
2019-03-24T14:11:05.475Z,97831.00
2019-03-24T14:13:38.195Z,97832.00
2019-03-24T14:16:10.418Z,97822.00
2019-03-24T14:18:42.531Z,97827.00
2019-03-24T14:21:15.023Z,97830.00
2019-03-24T14:23:47.515Z,97823.00
2019-03-24T14:26:19.701Z,97814.00
2019-03-24T14:28:51.696Z,97815.00
2019-03-24T14:31:24.608Z,97821.00
2019-03-24T14:33:56.719Z,97817.00
2019-03-24T14:36:29.034Z,97812.00
2019-03-24T14:39:01.206Z,97802.00
2019-03-24T14:41:34.998Z,97809.00
2019-03-24T14:44:07.197Z,97809.00
2019-03-24T14:46:39.314Z,97805.00
2019-03-24T14:49:12.403Z,97804.00
2019-03-24T14:51:44.574Z,97805.00
2019-03-24T14:54:16.383Z,97805.00
2019-03-24T14:56:48.658Z,97807.00
2019-03-24T14:59:20.802Z,97807.00
2019-03-24T15:01:53.087Z,97808.00
2019-03-24T15:04:25.241Z,97824.00
2019-03-24T15:06:57.695Z,97814.00
2019-03-24T15:09:30.143Z,97819.00
2019-03-24T15:12:02.246Z,97805.00
2019-03-24T15:14:34.684Z,97806.00
2019-03-24T15:17:06.736Z,97811.00
2019-03-24T15:19:38.673Z,97796.00
2019-03-24T15:22:10.633Z,97802.00
2019-03-24T15:24:43.072Z,97793.00
2019-03-24T15:27:15.145Z,97798.00
2019-03-24T15:29:47.311Z,97802.00
2019-03-24T15:32:19.358Z,97820.00
2019-03-24T15:34:51.414Z,97802.00
2019-03-24T15:37:24.327Z,97818.00
2019-03-24T15:39:57.088Z,97811.00
2019-03-24T15:42:29.138Z,97807.00
2019-03-24T15:45:01.292Z,97802.00
2019-03-24T15:47:33.309Z,97813.00
2019-03-24T15:50:06.245Z,97800.00
2019-03-24T15:52:38.253Z,97800.00
2019-03-24T15:55:10.448Z,97796.00
2019-03-24T15:57:42.455Z,97811.00
2019-03-24T16:00:16.874Z,97801.00
2019-03-24T16:02:48.720Z,97802.00
2019-03-24T16:05:20.665Z,97798.00
2019-03-24T16:07:52.859Z,97794.00
2019-03-24T16:10:34.923Z,97796.00
2019-03-24T16:12:58.640Z,97795.00
2019-03-24T16:15:31.206Z,97791.00
2019-03-24T16:18:03.407Z,97784.00
2019-03-24T16:20:35.474Z,97792.00
2019-03-24T16:23:07.497Z,97781.00
2019-03-24T16:25:39.602Z,97775.00
2019-03-24T16:28:11.993Z,97790.00
2019-03-24T16:30:44.064Z,97783.00
2019-03-24T16:33:16.487Z,97783.00
2019-03-24T16:35:48.947Z,97785.00
2019-03-24T16:38:21.024Z,97783.00
2019-03-24T16:40:54.190Z,97774.00
2019-03-24T16:43:26.223Z,97776.00
2019-03-24T16:45:58.658Z,97779.00
2019-03-24T16:48:36.883Z,97779.00
2019-03-24T16:51:04.589Z,97769.00
2019-03-24T16:53:36.655Z,97758.00
2019-03-24T16:56:08.863Z,97757.00
2019-03-24T16:58:40.917Z,97759.00
2019-03-24T17:01:13.026Z,97760.00
2019-03-24T17:03:44.962Z,97761.00
2019-03-24T17:06:17.402Z,97769.00
2019-03-24T17:08:50.629Z,97762.00
2019-03-24T17:11:22.760Z,97759.00
2019-03-24T17:13:54.821Z,97765.00
2019-03-24T17:16:27.208Z,97758.00
2019-03-24T17:18:59.325Z,97760.00
2019-03-24T17:21:31.428Z,97760.00
2019-03-24T17:24:03.587Z,97760.00
2019-03-24T17:26:35.625Z,97753.00
2019-03-24T17:29:07.618Z,97753.00
2019-03-24T17:31:39.764Z,97753.00
2019-03-24T17:34:11.758Z,97766.00
2019-03-24T17:36:43.709Z,97765.00
2019-03-24T17:39:15.580Z,97769.00
2019-03-24T17:41:49.153Z,97771.00
2019-03-24T17:44:21.176Z,97759.00
2019-03-24T17:46:53.138Z,97758.00
2019-03-24T17:49:25.146Z,97756.00
2019-03-24T17:52:00.958Z,97745.00
2019-03-24T17:54:31.429Z,97749.00
2019-03-24T17:57:03.511Z,97756.00
2019-03-24T17:59:35.729Z,97754.00
2019-03-24T18:02:14.274Z,97755.00
2019-03-24T18:04:41.707Z,97758.00
2019-03-24T18:07:13.829Z,97756.00
2019-03-24T18:09:45.731Z,97750.00
2019-03-24T18:12:17.741Z,97755.00
2019-03-24T18:14:49.909Z,97747.00
2019-03-24T18:17:22.173Z,97733.00
2019-03-24T18:19:54.181Z,97739.00
2019-03-24T18:22:27.219Z,97732.00
2019-03-24T18:25:00.412Z,97736.00
2019-03-24T18:27:32.514Z,97741.00
2019-03-24T18:30:05.984Z,97736.00
2019-03-24T18:32:38.229Z,97733.00
2019-03-24T18:35:11.279Z,97740.00
2019-03-24T18:37:44.377Z,97744.00
2019-03-24T18:40:17.219Z,97742.00
2019-03-24T18:42:49.250Z,97732.00
2019-03-24T18:45:21.723Z,97735.00
2019-03-24T18:47:54.746Z,97741.00
2019-03-24T18:50:27.318Z,97736.00
2019-03-24T18:52:59.506Z,97731.00
2019-03-24T18:55:31.886Z,97736.00
2019-03-24T18:58:04.327Z,97731.00
2019-03-24T19:00:36.723Z,97725.00
2019-03-24T19:03:08.866Z,97722.00
2019-03-24T19:05:40.955Z,97729.00
2019-03-24T19:08:13.222Z,97710.00
2019-03-24T19:10:45.293Z,97714.00
2019-03-24T19:13:17.409Z,97714.00
2019-03-24T19:15:49.799Z,97706.00
2019-03-24T19:18:22.681Z,97713.00
2019-03-24T19:20:54.540Z,97714.00
2019-03-24T19:23:26.612Z,97724.00
2019-03-24T19:25:58.534Z,97727.00
2019-03-24T19:28:30.718Z,97728.00
2019-03-24T19:31:03.211Z,97743.00
2019-03-24T19:33:35.295Z,97728.00
2019-03-24T19:36:08.446Z,97727.00
2019-03-24T19:38:41.801Z,97726.00
2019-03-24T19:41:13.699Z,97707.00
2019-03-24T19:43:45.827Z,97713.00
2019-03-24T19:46:18.195Z,97710.00
2019-03-24T19:48:50.179Z,97703.00
2019-03-24T19:51:22.269Z,97692.00
2019-03-24T19:53:54.314Z,97691.00
2019-03-24T19:56:26.350Z,97691.00
2019-03-24T19:58:58.359Z,97684.00
2019-03-24T20:01:30.488Z,97692.00
2019-03-24T20:04:02.764Z,97693.00
2019-03-24T20:06:34.866Z,97691.00
2019-03-24T20:09:09.782Z,97691.00
2019-03-24T20:11:42.191Z,97689.00
2019-03-24T20:14:14.435Z,97692.00
2019-03-24T20:16:46.437Z,97681.00
2019-03-24T20:19:18.382Z,97690.00
2019-03-24T20:21:50.286Z,97676.00
2019-03-24T20:24:23.377Z,97677.00
2019-03-24T20:26:55.358Z,97671.00
2019-03-24T20:29:27.374Z,97671.00
2019-03-24T20:31:59.358Z,97673.00
2019-03-24T20:34:31.448Z,97667.00
2019-03-24T20:37:03.441Z,97675.00
2019-03-24T20:39:35.742Z,97664.00
2019-03-24T20:42:08.119Z,97663.00
2019-03-24T20:44:40.069Z,97658.00
2019-03-24T20:47:12.367Z,97661.00
2019-03-24T20:49:45.467Z,97658.00
2019-03-24T20:52:17.469Z,97652.00
2019-03-24T20:54:49.508Z,97649.00
2019-03-24T20:57:21.506Z,97654.00
2019-03-24T20:59:53.520Z,97656.00
2019-03-24T21:02:25.397Z,97643.00
2019-03-24T21:04:57.486Z,97638.00
2019-03-24T21:07:29.943Z,97640.00
2019-03-24T21:10:02.642Z,97644.00
2019-03-24T21:12:34.939Z,97642.00
2019-03-24T21:15:11.510Z,97645.00
2019-03-24T21:17:42.941Z,97644.00
2019-03-24T21:20:15.615Z,97645.00
2019-03-24T21:22:47.726Z,97642.00
2019-03-24T21:25:23.274Z,97639.00
2019-03-24T21:27:55.693Z,97631.00
2019-03-24T21:30:46.628Z,97635.00
2019-03-24T21:33:19.209Z,97626.00
2019-03-24T21:35:51.467Z,97634.00
2019-03-24T21:38:23.847Z,97630.00
2019-03-24T21:40:56.344Z,97614.00
2019-03-24T21:43:28.338Z,97623.00
2019-03-24T21:46:00.863Z,97614.00
2019-03-24T21:48:33.632Z,97620.00
2019-03-24T21:51:05.712Z,97608.00
2019-03-24T21:53:40.860Z,97612.00
2019-03-24T21:56:14.022Z,97612.00
2019-03-24T21:58:45.954Z,97621.00
2019-03-24T22:01:17.941Z,97613.00
2019-03-24T22:03:49.910Z,97607.00
2019-03-24T22:06:21.942Z,97606.00
2019-03-24T22:08:54.283Z,97610.00
2019-03-24T22:11:26.346Z,97604.00
2019-03-24T22:13:58.783Z,97612.00
2019-03-24T22:16:31.207Z,97608.00
2019-03-24T22:19:03.098Z,97609.00
2019-03-24T22:21:35.097Z,97607.00
2019-03-24T22:24:07.423Z,97607.00
2019-03-24T22:26:39.394Z,97609.00
2019-03-24T22:29:11.877Z,97597.00
2019-03-24T22:31:43.805Z,97605.00
2019-03-24T22:34:16.408Z,97589.00
2019-03-24T22:36:48.946Z,97582.00
2019-03-24T22:39:21.303Z,97584.00
2019-03-24T22:41:53.753Z,97588.00
2019-03-24T22:44:25.765Z,97600.00
2019-03-24T22:46:58.080Z,97577.00
2019-03-24T22:49:30.120Z,97575.00
2019-03-24T22:52:07.153Z,97574.00
2019-03-24T22:54:36.027Z,97566.00
2019-03-24T22:57:08.488Z,97560.00
2019-03-24T22:59:40.865Z,97550.00
2019-03-24T23:02:12.985Z,97554.00
2019-03-24T23:04:45.112Z,97548.00
2019-03-24T23:07:19.337Z,97539.00
2019-03-24T23:09:51.675Z,97541.00
2019-03-24T23:12:25.687Z,97539.00
2019-03-24T23:14:57.864Z,97533.00
2019-03-24T23:17:29.913Z,97543.00
2019-03-24T23:20:01.947Z,97533.00
2019-03-24T23:22:33.942Z,97524.00
2019-03-24T23:25:06.336Z,97522.00
2019-03-24T23:27:38.384Z,97530.00
2019-03-24T23:30:12.075Z,97513.00
2019-03-24T23:32:44.063Z,97513.00
2019-03-24T23:35:16.420Z,97523.00
2019-03-24T23:37:48.388Z,97519.00
2019-03-24T23:40:20.395Z,97518.00
2019-03-24T23:42:53.124Z,97522.00
2019-03-24T23:45:25.241Z,97515.00
2019-03-24T23:47:57.810Z,97518.00
2019-03-24T23:50:30.241Z,97519.00
2019-03-24T23:53:02.608Z,97511.00
2019-03-24T23:55:34.669Z,97503.00
2019-03-24T23:58:06.637Z,97513.00
